Main page
METAR-TAF:

METAR-TAF

Airports :

Shiraz, Iran

Shiraz International Airport

latitude: 29-32N, longitude: 052-35E, elevation: 1486 m

Current weather observation

The report was made 34 minutes ago, at 03:30 UTC
Calm wind
Temperature 8°C
Humidity 39%
Pressure 1023 hPa
Visibility 10 km or more
no clouds below 1500 m and no cumulonimbus

METAR: OISS 240330Z 00000KT CAVOK 08/M05 Q1023 A3021

Time: 07:34 (04:04 UTC)

Forecast

The report was made 4 hours and 54 minutes ago, at 23:10 UTC
Forecast valid from 24 at 00 UTC to 25 at 06 UTC
Wind 8 kt from the West
Visibility 10 km or more
no clouds below 1500 m and no cumulonimbus

TAF: OISS 232310Z 2400/2506 26004MPS CAVOK

Weather observations and forecasts of more than 4000 airports (METAR and TAF reports).

The available stations are represented by yellow and red dots on the map.

Hover mouse over dot to see the name of the station.

Then click to see weather observations and forecasts.

To change the map : click on the green buttons with a black cross to zoom in, on the green button with a dash to zoom out, or on the green arrows for adjacent maps.


METAR-TAF: